Time;durP1;ratioP1;P1;durP2;ratioP2;P2;SDS_P1;SDS_P2;PMS_P1;PMS_P2;Temp;Humidity;BMP_temperature;BMP_pressure;BME280_temperature;BME280_humidity;BME280_pressure;Samples;Min_cycle;Max_cycle;Signal;HPM_P1;HPM_P2
2021/03/26 00:01:39;;;;;;;244.73;96.43;;;;;;;-2.31;70.43;99674.97;3549595;27;20041;-56
2021/03/26 00:03:22;;;;;;;212.25;83.32;;;;;;;-2.32;69.04;99680.81;3551304;27;20051;-56
2021/03/26 00:05:07;;;;;;;208.05;79.35;;;;;;;-2.36;67.94;99673.78;3550562;27;20141;-57
2021/03/26 00:06:50;;;;;;;193.80;74.97;;;;;;;-2.39;67.28;99686.28;3551682;27;20506;-48
2021/03/26 00:08:32;;;;;;;203.80;77.82;;;;;;;-2.41;68.62;99677.69;3538975;28;20412;-48
2021/03/26 00:10:15;;;;;;;210.00;84.93;;;;;;;-2.41;69.63;99677.69;3545648;27;20095;-57
2021/03/26 00:11:59;;;;;;;204.60;75.40;;;;;;;-2.41;68.84;99682.78;3552985;27;20051;-48
2021/03/26 00:13:41;;;;;;;189.27;73.38;;;;;;;-2.44;67.02;99684.34;3549640;27;20091;-49
2021/03/26 00:15:24;;;;;;;196.10;75.10;;;;;;;-2.44;67.80;99681.78;3550934;27;20077;-47
2021/03/26 00:17:06;;;;;;;193.85;77.05;;;;;;;-2.43;68.50;99682.66;3551379;27;20107;-48
2021/03/26 00:18:49;;;;;;;215.05;82.43;;;;;;;-2.43;69.99;99685.22;3549384;27;20051;-48
2021/03/26 00:20:30;;;;;;;198.35;78.50;;;;;;;-2.45;69.16;99685.09;3553205;27;20050;-48
2021/03/26 00:22:13;;;;;;;205.75;77.53;;;;;;;-2.47;68.56;99681.59;3549319;27;20049;-57
2021/03/26 00:23:54;;;;;;;201.98;80.03;;;;;;;-2.49;68.22;99680.63;3552429;27;20096;-49
2021/03/26 00:25:36;;;;;;;212.77;83.18;;;;;;;-2.49;68.93;99687.34;3549726;27;20070;-48
2021/03/26 00:27:18;;;;;;;205.38;80.57;;;;;;;-2.50;69.79;99681.38;3550425;27;20063;-56
2021/03/26 00:29:00;;;;;;;208.77;80.65;;;;;;;-2.48;70.38;99681.47;3552021;27;20538;-56
2021/03/26 00:30:41;;;;;;;198.65;76.00;;;;;;;-2.50;70.12;99688.13;3550364;27;20062;-56
2021/03/26 00:32:23;;;;;;;210.20;83.18;;;;;;;-2.51;70.73;99687.25;3552694;27;20103;-49
2021/03/26 00:34:04;;;;;;;146.10;56.35;;;;;;;-2.52;68.29;99684.63;3549161;27;20160;-48
2021/03/26 00:35:47;;;;;;;147.30;58.92;;;;;;;-2.54;67.10;99681.09;3552264;27;20196;-49
2021/03/26 00:37:28;;;;;;;149.15;56.58;;;;;;;-2.57;66.78;99684.28;3549630;27;20600;-56
2021/03/26 00:39:10;;;;;;;145.40;53.55;;;;;;;-2.57;67.08;99684.28;3550055;27;20047;-48
2021/03/26 00:40:51;;;;;;;165.27;59.55;;;;;;;-2.56;68.09;99688.59;3551873;27;20057;-49
2021/03/26 00:42:33;;;;;;;166.18;67.45;;;;;;;-2.55;69.60;99680.19;3551533;27;20050;-48
2021/03/26 00:44:15;;;;;;;196.75;77.68;;;;;;;-2.53;72.29;99683.75;3552982;27;20060;-48
2021/03/26 00:45:57;;;;;;;151.10;58.65;;;;;;;-2.53;70.70;99680.31;3549046;27;20095;-52
2021/03/26 00:47:38;;;;;;;146.55;55.85;;;;;;;-2.56;68.59;99678.44;3552218;27;20050;-49
2021/03/26 00:49:20;;;;;;;144.93;54.90;;;;;;;-2.59;67.98;99673.16;3549629;27;20185;-48
2021/03/26 00:51:02;;;;;;;128.30;50.40;;;;;;;-2.58;67.68;99684.19;3550487;27;20051;-57
2021/03/26 00:52:44;;;;;;;192.82;70.60;;;;;;;-2.58;69.41;99692.72;3553686;27;20051;-57
2021/03/26 00:54:25;;;;;;;196.75;73.88;;;;;;;-2.57;71.36;99689.38;3551362;27;20553;-57
2021/03/26 00:56:06;;;;;;;194.88;75.05;;;;;;;-2.56;72.18;99681.00;3552673;27;20111;-49
2021/03/26 00:57:48;;;;;;;181.65;72.60;;;;;;;-2.55;72.93;99692.03;3551448;27;20050;-48
2021/03/26 00:59:30;;;;;;;188.00;68.45;;;;;;;-2.56;73.30;99688.59;3552137;27;20050;-52
2021/03/26 01:01:11;;;;;;;159.60;57.90;;;;;;;-2.58;70.81;99691.81;3551616;27;20499;-49
2021/03/26 01:02:54;;;;;;;147.52;52.80;;;;;;;-2.62;68.60;99686.56;3550086;27;20047;-49
2021/03/26 01:04:36;;;;;;;154.27;56.25;;;;;;;-2.63;68.23;99691.53;3553028;27;20606;-49
2021/03/26 01:06:18;;;;;;;124.15;49.60;;;;;;;-2.66;66.19;99687.09;3549178;27;20058;-57
2021/03/26 01:08:00;;;;;;;134.57;49.70;;;;;;;-2.66;65.64;99692.19;3552747;27;20103;-57
2021/03/26 01:09:41;;;;;;;139.38;49.83;;;;;;;-2.67;64.81;99695.53;3551037;27;20066;-57
2021/03/26 01:11:26;;;;;;;137.90;49.50;;;;;;;-2.68;64.15;99691.22;3552089;27;20400;-57
2021/03/26 01:13:09;;;;;;;141.57;52.00;;;;;;;-2.69;64.54;99693.66;3549109;27;20046;-48
2021/03/26 01:14:51;;;;;;;137.02;53.13;;;;;;;-2.70;65.72;99694.44;3548874;27;20047;-48
2021/03/26 01:16:33;;;;;;;154.05;53.25;;;;;;;-2.72;66.30;99691.81;3551924;27;20499;-57
2021/03/26 01:18:21;;;;;;;143.10;51.53;;;;;;;-2.71;66.98;99691.00;3549109;27;20050;-57
2021/03/26 01:20:06;;;;;;;144.55;56.90;;;;;;;-2.72;68.47;99690.94;3552881;27;20047;-52
2021/03/26 01:21:48;;;;;;;143.25;51.00;;;;;;;-2.72;68.07;99683.31;3548482;27;20038;-57
2021/03/26 01:23:29;;;;;;;141.15;50.53;;;;;;;-2.74;67.04;99693.34;3550520;27;20236;-50
2021/03/26 01:25:16;;;;;;;151.57;54.60;;;;;;;-2.75;68.33;99693.25;3551098;27;20070;-49
2021/03/26 01:26:58;;;;;;;137.38;52.70;;;;;;;-2.76;67.85;99691.47;3551167;27;20060;-57
2021/03/26 01:28:40;;;;;;;151.18;57.33;;;;;;;-2.75;69.06;99699.19;3538141;28;20103;-57
2021/03/26 01:30:24;;;;;;;133.13;51.05;;;;;;;-2.77;68.98;99700.75;3548066;27;20103;-57
2021/03/26 01:32:06;;;;;;;135.18;48.25;;;;;;;-2.77;68.63;99699.91;3551986;27;20080;-57
2021/03/26 01:33:48;;;;;;;134.73;48.53;;;;;;;-2.78;68.41;99696.44;3549363;27;20093;-49
2021/03/26 01:35:30;;;;;;;142.00;52.88;;;;;;;-2.77;69.62;99698.22;3549052;27;20535;-57
2021/03/26 01:37:12;;;;;;;138.02;52.42;;;;;;;-2.76;69.88;99704.16;3553530;27;20030;-57
2021/03/26 01:38:53;;;;;;;142.00;49.83;;;;;;;-2.75;69.86;99708.47;3548692;27;20053;-48
2021/03/26 01:40:41;;;;;;;133.93;50.20;;;;;;;-2.77;69.91;99708.38;3552297;27;20047;-57
2021/03/26 01:42:26;;;;;;;132.57;49.08;;;;;;;-2.77;70.05;99707.50;3549787;27;20081;-57
2021/03/26 01:44:08;;;;;;;126.43;51.95;;;;;;;-2.78;70.65;99705.72;3550241;27;20432;-49
2021/03/26 01:45:52;;;;;;;131.75;51.75;;;;;;;-2.77;71.10;99707.50;3549603;27;20580;-49
2021/03/26 01:47:33;;;;;;;147.52;52.33;;;;;;;-2.78;71.28;99704.06;3548970;27;20067;-49
2021/03/26 01:49:15;;;;;;;129.48;46.90;;;;;;;-2.78;71.37;99710.81;3552066;27;20050;-57
2021/03/26 01:50:58;;;;;;;121.68;46.97;;;;;;;-2.79;71.34;99709.94;3549936;27;20050;-58
2021/03/26 01:52:40;;;;;;;127.60;47.55;;;;;;;-2.81;71.31;99708.97;3554717;27;20042;-49
2021/03/26 01:54:23;;;;;;;140.88;47.63;;;;;;;-2.81;71.36;99707.28;3551841;27;20142;-48
2021/03/26 01:56:05;;;;;;;119.78;46.38;;;;;;;-2.81;71.11;99706.44;3553045;27;20062;-58
2021/03/26 01:57:47;;;;;;;120.15;42.97;;;;;;;-2.81;70.12;99711.50;3551880;27;20054;-50
2021/03/26 01:59:41;;;;;;;111.45;40.95;;;;;;;-2.83;69.36;99711.41;3551403;27;20125;-49
2021/03/26 02:01:28;;;;;;;118.93;44.33;;;;;;;-2.81;69.86;99707.28;3554562;27;20103;-50
2021/03/26 02:03:15;;;;;;;120.30;43.97;;;;;;;-2.86;69.13;99695.94;3553873;27;20431;-52
2021/03/26 02:04:57;;;;;;;105.95;41.40;;;;;;;-2.85;67.27;99701.91;3552765;27;20056;-49
2021/03/26 02:06:42;;;;;;;111.40;38.22;;;;;;;-2.86;66.17;99701.03;3552672;27;20051;-48
2021/03/26 02:08:26;;;;;;;115.00;44.97;;;;;;;-2.85;67.20;99707.88;3553683;27;20042;-48
2021/03/26 02:10:08;;;;;;;;;;;;;;;-2.84;68.23;99707.09;3556055;27;20073;-58
2021/03/26 02:11:54;;;;;;;101.43;39.83;;;;;;;-2.84;68.25;99709.63;3551122;27;19970;-57
2021/03/26 02:13:36;;;;;;;106.32;43.08;;;;;;;-2.84;68.66;99711.28;3552849;27;20050;-50
2021/03/26 02:15:21;;;;;;;108.22;41.35;;;;;;;-2.85;69.00;99714.59;3550369;27;20137;-57
2021/03/26 02:17:04;;;;;;;109.47;39.30;;;;;;;-2.87;66.96;99708.53;3551573;27;20055;-49
2021/03/26 02:18:46;;;;;;;101.50;40.67;;;;;;;-2.89;66.22;99710.97;3554335;27;20054;-57
2021/03/26 02:20:45;;;;;;;107.72;40.30;;;;;;;-2.89;65.99;99718.59;3552889;27;20046;-58
2021/03/26 02:22:30;;;;;;;114.53;42.72;;;;;;;-2.90;67.83;99713.41;3554534;27;20432;-50
2021/03/26 02:24:12;;;;;;;109.72;41.95;;;;;;;-2.89;69.59;99718.59;3550685;27;20050;-48
2021/03/26 02:25:57;;;;;;;113.18;41.83;;;;;;;-2.89;70.15;99720.25;3552083;27;20047;-50
2021/03/26 02:27:39;;;;;;;97.35;38.22;;;;;;;-2.91;68.37;99717.59;3553883;27;20050;-48
2021/03/26 02:29:27;;;;;;;98.32;38.05;;;;;;;-2.94;67.90;99712.31;3551531;27;20108;-51
2021/03/26 02:31:08;;;;;;;110.00;42.38;;;;;;;-2.96;68.06;99713.88;3554106;27;20047;-58
2021/03/26 02:32:50;;;;;;;106.68;40.35;;;;;;;-3.00;67.81;99715.31;3550674;27;20047;-49
2021/03/26 02:34:33;;;;;;;100.95;39.00;;;;;;;-3.02;66.93;99714.34;3553626;27;20051;-58
2021/03/26 02:36:50;;;;;;;115.22;44.60;;;;;;;-3.03;67.38;99719.31;3551654;27;20081;-58
2021/03/26 02:38:33;;;;;;;95.20;39.55;;;;;;;-3.04;65.99;99715.00;3552997;27;20091;-57
2021/03/26 02:40:21;;;;;;;99.45;38.03;;;;;;;-3.06;65.81;99717.47;3553906;27;20062;-57
2021/03/26 02:42:09;;;;;;;100.07;37.50;;;;;;;-3.07;65.29;99715.69;3551757;27;20503;-48
2021/03/26 02:43:59;;;;;;;93.40;38.78;;;;;;;-3.07;66.32;99712.28;3550592;27;20042;-58
2021/03/26 02:45:46;;;;;;;97.03;39.03;;;;;;;-3.08;66.68;99721.53;3553937;27;20070;-49
2021/03/26 02:47:35;;;;;;;95.28;37.90;;;;;;;-3.06;67.96;99714.00;3553806;27;20067;-57
2021/03/26 02:49:21;;;;;;;93.95;35.75;;;;;;;-3.08;68.19;99708.84;3554156;27;20046;-48
2021/03/26 02:51:12;;;;;;;105.60;39.83;;;;;;;-3.06;68.55;99714.91;3551015;27;20149;-57
2021/03/26 02:53:00;;;;;;;92.22;36.78;;;;;;;-3.06;69.07;99716.56;3552688;27;20098;-58
2021/03/26 02:54:49;;;;;;;94.75;38.03;;;;;;;-3.08;68.74;99723.19;3553730;27;20057;-48
2021/03/26 02:56:35;;;;;;;100.63;37.55;;;;;;;-3.09;69.43;99716.38;3550342;27;20054;-58
2021/03/26 02:58:21;;;;;;;103.65;39.50;;;;;;;-3.11;69.49;99717.91;3553297;27;20055;-58
2021/03/26 03:00:21;;;;;;;97.13;37.92;;;;;;;-3.12;69.08;99719.56;3551566;27;20077;-58
2021/03/26 03:02:05;;;;;;;94.20;35.92;;;;;;;-3.14;68.27;99710.97;3552862;27;20057;-58
2021/03/26 03:03:49;;;;;;;99.00;39.38;;;;;;;-3.13;68.31;99719.44;3554654;27;20080;-57
2021/03/26 03:05:34;;;;;;;94.32;38.75;;;;;;;-3.13;69.21;99719.44;3553748;27;20503;-57
2021/03/26 03:07:22;;;;;;;94.03;35.67;;;;;;;-3.15;68.32;99723.53;3552713;27;20046;-47
2021/03/26 03:09:06;;;;;;;88.97;36.97;;;;;;;-3.16;68.47;99722.66;3551729;27;20427;-48
2021/03/26 03:10:52;;;;;;;90.05;37.22;;;;;;;-3.17;69.00;99723.44;3550275;27;20035;-58
2021/03/26 03:12:39;;;;;;;90.50;36.15;;;;;;;-3.17;68.88;99722.56;3553563;27;20075;-58
2021/03/26 03:14:27;;;;;;;88.93;34.63;;;;;;;-3.16;67.83;99726.84;3548217;27;20445;-57
2021/03/26 03:16:17;;;;;;;91.10;38.47;;;;;;;-3.17;67.83;99730.19;3552176;27;20058;-57
2021/03/26 03:18:04;;;;;;;95.72;35.08;;;;;;;-3.19;68.01;99732.59;3552111;27;20046;-58
2021/03/26 03:19:53;;;;;;;94.65;32.60;;;;;;;-3.22;67.77;99742.53;3549994;27;20124;-58
2021/03/26 03:21:39;;;;;;;78.72;29.30;;;;;;;-3.23;68.25;99741.66;3553090;27;20101;-58
2021/03/26 03:23:28;;;;;;;78.22;29.45;;;;;;;-3.22;68.03;99745.06;3549879;27;20046;-57
2021/03/26 03:25:13;;;;;;;74.55;28.00;;;;;;;-3.19;67.31;99745.28;3551765;27;20119;-58
2021/03/26 03:27:04;;;;;;;69.78;26.88;;;;;;;-3.16;67.06;99748.03;3551223;27;20055;-57
2021/03/26 03:28:51;;;;;;;65.43;27.65;;;;;;;-3.13;66.58;99748.25;3549689;27;20046;-58
2021/03/26 03:31:01;;;;;;;54.70;24.23;;;;;;;-3.08;65.91;99748.56;3552709;27;20081;-58
2021/03/26 03:32:50;;;;;;;55.65;21.88;;;;;;;-3.04;65.76;99747.97;3551051;27;20065;-57
2021/03/26 03:34:36;;;;;;;55.83;22.33;;;;;;;-3.00;64.66;99750.84;3551938;27;20491;-58
2021/03/26 03:36:21;;;;;;;45.38;19.48;;;;;;;-2.95;64.93;99753.72;3539170;28;20047;-58
2021/03/26 03:38:12;;;;;;;46.75;19.17;;;;;;;-2.90;64.56;99756.53;3548041;27;20070;-57
2021/03/26 03:40:01;;;;;;;45.90;18.45;;;;;;;-2.87;64.36;99757.63;3551547;27;20504;-58
2021/03/26 03:41:46;;;;;;;38.13;16.02;;;;;;;-2.82;64.81;99757.97;3551648;27;20075;-58
2021/03/26 03:43:34;;;;;;;38.78;17.88;;;;;;;-2.81;64.37;99753.00;3549547;27;20047;-58
2021/03/26 03:45:21;;;;;;;37.20;18.33;;;;;;;-2.77;63.55;99768.44;3553250;27;20054;-58
2021/03/26 03:47:10;;;;;;;37.35;17.10;;;;;;;-2.74;64.87;99763.53;3551788;27;20049;-57
2021/03/26 03:49:00;;;;;;;39.58;17.08;;;;;;;-2.73;63.81;99766.19;3551311;27;20111;-58
2021/03/26 03:50:51;;;;;;;39.20;17.00;;;;;;;-2.72;63.12;99765.41;3551709;27;20095;-58
2021/03/26 03:52:36;;;;;;;42.75;18.42;;;;;;;-2.70;63.67;99760.44;3549484;27;20043;-48
2021/03/26 03:54:24;;;;;;;41.10;17.35;;;;;;;-2.68;63.69;99766.50;3553197;27;20123;-48
2021/03/26 03:56:18;;;;;;;43.55;17.98;;;;;;;-2.69;63.14;99763.09;3551922;27;20366;-48
2021/03/26 03:58:06;;;;;;;40.53;17.63;;;;;;;-2.69;63.94;99754.56;3552186;27;20114;-50
2021/03/26 03:59:54;;;;;;;42.35;17.95;;;;;;;-2.68;64.32;99757.22;3552723;27;20072;-49
2021/03/26 04:01:43;;;;;;;38.38;18.02;;;;;;;-2.67;63.90;99769.16;3551534;27;20072;-48
2021/03/26 04:03:28;;;;;;;38.35;18.05;;;;;;;-2.68;64.52;99763.97;3552638;27;20046;-48
2021/03/26 04:05:15;;;;;;;43.97;18.92;;;;;;;-2.68;65.04;99757.22;3549828;27;20533;-50
2021/03/26 04:07:01;;;;;;;50.75;19.40;;;;;;;-2.67;64.34;99759.00;3550662;27;20527;-48
2021/03/26 04:08:46;;;;;;;42.33;18.65;;;;;;;-2.65;64.50;99757.44;3552785;27;20526;-51
2021/03/26 04:10:32;;;;;;;40.22;19.00;;;;;;;-2.63;64.65;99760.09;3550496;27;20101;-49
2021/03/26 04:12:17;;;;;;;44.55;21.10;;;;;;;-2.61;64.58;99763.59;3552880;27;20053;-49
2021/03/26 04:14:04;;;;;;;48.38;19.63;;;;;;;-2.59;65.50;99758.63;3549006;27;20478;-48
2021/03/26 04:15:52;;;;;;;45.55;20.08;;;;;;;-2.55;65.68;99761.47;3549766;27;20054;-50
2021/03/26 04:17:41;;;;;;;43.92;20.95;;;;;;;-2.53;65.96;99764.09;3552144;27;20050;-50
2021/03/26 04:19:26;;;;;;;47.42;21.17;;;;;;;-2.49;65.61;99756.81;3549291;27;20250;-48
2021/03/26 04:21:12;;;;;;;49.50;20.75;;;;;;;-2.44;66.20;99764.75;3552973;27;20055;-48
2021/03/26 04:22:59;;;;;;;47.17;20.88;;;;;;;-2.39;65.93;99762.50;3551225;27;20050;-48
2021/03/26 04:24:44;;;;;;;45.20;19.20;;;;;;;-2.37;64.55;99760.94;3549389;27;20069;-48
2021/03/26 04:26:30;;;;;;;41.53;19.65;;;;;;;-2.33;64.92;99765.44;3552447;27;20468;-49
2021/03/26 04:28:18;;;;;;;42.88;19.00;;;;;;;-2.27;65.20;99763.28;3549063;27;20043;-51
2021/03/26 04:30:04;;;;;;;41.45;19.08;;;;;;;-2.20;65.44;99770.53;3552795;27;20108;-48
2021/03/26 04:31:51;;;;;;;41.15;18.65;;;;;;;-2.16;64.84;99769.97;3548470;27;20066;-49
2021/03/26 04:33:33;;;;;;;48.65;20.70;;;;;;;-2.09;65.73;99772.16;3549849;27;20047;-49
2021/03/26 04:35:17;;;;;;;42.00;18.85;;;;;;;-2.01;64.93;99771.75;3552089;27;20047;-48
2021/03/26 04:37:02;;;;;;;;;;;;;;;-1.94;65.21;99772.25;3549123;27;20589;-48
2021/03/26 04:38:48;;;;;;;40.95;18.25;;;;;;;-1.83;65.54;99774.59;3552611;27;19922;-48
2021/03/26 04:40:33;;;;;;;40.40;17.40;;;;;;;-1.74;66.15;99781.13;3548995;27;20061;-49
2021/03/26 04:42:22;;;;;;;36.20;16.17;;;;;;;-1.62;64.81;99781.06;3550458;27;20464;-48
2021/03/26 04:44:10;;;;;;;38.95;17.73;;;;;;;-1.51;65.72;99776.66;3551123;27;20043;-48
2021/03/26 04:45:57;;;;;;;36.20;18.55;;;;;;;-1.38;66.07;99778.28;3548944;27;20051;-47
2021/03/26 04:47:44;;;;;;;39.13;17.80;;;;;;;-1.25;66.27;99777.41;3552764;27;20071;-49
2021/03/26 04:49:32;;;;;;;36.10;17.38;;;;;;;-1.13;66.31;99783.25;3548951;27;20070;-48
2021/03/26 04:51:21;;;;;;;45.30;19.10;;;;;;;-1.01;65.57;99783.09;3550425;27;20038;-49
2021/03/26 04:53:11;;;;;;;31.85;16.55;;;;;;;-0.89;65.38;99776.22;3551974;27;20058;-49
2021/03/26 04:55:00;;;;;;;37.13;17.35;;;;;;;-0.77;65.46;99789.69;3549023;27;20267;-49
2021/03/26 04:56:46;;;;;;;36.20;17.25;;;;;;;-0.65;64.61;99786.16;3552251;27;20419;-49
2021/03/26 04:58:32;;;;;;;39.25;16.88;;;;;;;-0.54;65.26;99793.63;3548352;27;20062;-48
2021/03/26 05:00:19;;;;;;;32.40;15.80;;;;;;;-0.41;65.49;99792.69;3550169;27;20046;-50
2021/03/26 05:02:05;;;;;;;38.92;16.77;;;;;;;-0.30;66.11;99793.31;3550899;27;20526;-49
2021/03/26 05:03:52;;;;;;;35.55;16.55;;;;;;;-0.18;66.39;99796.59;3548726;27;20507;-49
2021/03/26 05:05:40;;;;;;;41.22;18.35;;;;;;;-0.08;66.57;99792.88;3552471;27;20134;-49
2021/03/26 05:07:29;;;;;;;36.70;17.70;;;;;;;0.06;67.03;99791.13;3551540;27;20534;-50
2021/03/26 05:09:16;;;;;;;32.50;16.33;;;;;;;0.16;67.15;99795.97;3551437;27;20044;-49
2021/03/26 05:11:00;;;;;;;35.13;16.30;;;;;;;0.27;66.77;99795.72;3550873;27;20051;-49
2021/03/26 05:12:43;;;;;;;;;;;;;;;0.37;66.31;99798.00;3549077;27;20560;-49
2021/03/26 05:14:28;;;;;;;27.52;14.23;;;;;;;0.46;66.25;99793.41;3551078;27;19930;-49
2021/03/26 05:16:15;;;;;;;34.08;16.50;;;;;;;0.58;66.69;99793.22;3550807;27;20084;-48
2021/03/26 05:18:02;;;;;;;36.45;15.50;;;;;;;0.70;65.65;99801.53;3550160;27;20047;-48
2021/03/26 05:19:47;;;;;;;36.42;17.10;;;;;;;0.82;66.50;99792.78;3551510;27;20078;-52
2021/03/26 05:21:34;;;;;;;33.33;16.50;;;;;;;0.93;66.46;99801.88;3551122;27;20049;-51
2021/03/26 05:23:23;;;;;;;31.38;14.32;;;;;;;1.02;65.68;99792.19;3552285;27;20111;-50
2021/03/26 05:25:10;;;;;;;41.85;16.63;;;;;;;1.12;65.51;99801.22;3549218;27;20054;-48
2021/03/26 05:26:53;;;;;;;31.95;15.48;;;;;;;1.21;65.05;99801.69;3552620;27;20074;-49
2021/03/26 05:28:40;;;;;;;31.92;14.82;;;;;;;1.30;64.97;99803.84;3554895;27;20058;-50
2021/03/26 05:30:24;;;;;;;30.83;15.38;;;;;;;1.41;64.27;99801.84;3552259;27;20084;-52
2021/03/26 05:32:32;;;;;;;35.60;16.10;;;;;;;1.52;64.88;99798.19;3554093;27;20051;-49
2021/03/26 05:34:18;;;;;;;34.55;16.50;;;;;;;1.60;64.16;99804.59;3551979;27;20046;-48
2021/03/26 05:36:05;;;;;;;34.95;16.45;;;;;;;1.70;63.67;99804.25;3553299;27;20116;-51
2021/03/26 05:37:56;;;;;;;37.70;15.95;;;;;;;1.77;63.86;99802.88;3568453;27;20177;-49
2021/03/26 05:39:38;;;;;;;36.85;17.17;;;;;;;1.87;63.96;99802.56;3554303;27;20062;-49
2021/03/26 05:41:57;;;;;;;32.30;16.25;;;;;;;1.94;63.41;99796.94;3554145;27;20047;-49
2021/03/26 05:44:04;;;;;;;34.97;16.42;;;;;;;2.03;63.20;99803.31;3554214;27;20534;-49
2021/03/26 05:45:56;;;;;;;33.90;16.65;;;;;;;2.08;63.05;99805.31;3553336;27;20046;-50
2021/03/26 05:47:52;;;;;;;41.58;18.95;;;;;;;2.13;63.02;99802.97;3553265;27;20042;-48
2021/03/26 05:49:45;;;;;;;37.28;16.67;;;;;;;2.15;62.90;99816.72;3554146;27;20050;-49
2021/03/26 05:51:46;;;;;;;34.47;16.90;;;;;;;2.17;63.21;99815.13;3553362;27;20070;-50
2021/03/26 05:53:33;;;;;;;35.25;17.15;;;;;;;2.25;63.55;99818.94;3551248;27;20058;-50
2021/03/26 05:55:28;;;;;;;36.55;17.90;;;;;;;2.36;63.34;99814.34;3554207;27;20042;-49
2021/03/26 05:57:17;;;;;;;40.17;16.77;;;;;;;2.44;62.38;99807.03;3550874;27;20059;-49
2021/03/26 05:59:16;;;;;;;43.25;17.92;;;;;;;2.59;62.44;99817.09;3553599;27;20047;-50
2021/03/26 06:01:19;;;;;;;35.17;17.70;;;;;;;2.77;62.50;99823.13;3552448;27;20099;-49
2021/03/26 06:03:26;;;;;;;35.67;17.25;;;;;;;2.97;62.68;99820.59;3550663;27;20051;-50
2021/03/26 06:05:40;;;;;;;37.53;17.50;;;;;;;3.19;62.54;99825.03;3552230;27;20046;-49
2021/03/26 06:07:54;;;;;;;34.20;17.45;;;;;;;3.37;61.28;99822.44;3540063;28;20050;-50
2021/03/26 06:10:03;;;;;;;39.67;18.27;;;;;;;3.52;60.94;99815.41;3551815;27;20187;-48
2021/03/26 06:12:14;;;;;;;40.97;19.73;;;;;;;3.69;59.92;99820.41;3547904;27;20134;-50
2021/03/26 06:14:16;;;;;;;39.58;18.73;;;;;;;3.85;60.37;99822.81;3551016;27;20050;-49
2021/03/26 06:16:19;;;;;;;38.00;19.10;;;;;;;4.00;59.05;99825.16;3553440;27;20469;-51
2021/03/26 06:18:29;;;;;;;40.55;18.55;;;;;;;4.07;58.13;99819.50;3550513;27;20533;-51
2021/03/26 06:20:31;;;;;;;38.33;18.77;;;;;;;4.15;58.22;99818.09;3550961;27;20182;-50
2021/03/26 06:22:31;;;;;;;33.95;17.60;;;;;;;4.21;58.20;99814.91;3540055;28;20113;-49
2021/03/26 06:24:30;;;;;;;35.45;17.80;;;;;;;4.29;58.59;99817.81;3550737;27;20050;-49
2021/03/26 06:26:34;;;;;;;40.40;19.17;;;;;;;4.38;58.60;99811.34;3550541;27;20043;-49
2021/03/26 06:28:28;;;;;;;37.92;17.52;;;;;;;4.57;58.12;99817.22;3539821;28;20504;-49
2021/03/26 06:30:25;;;;;;;37.80;18.38;;;;;;;4.74;56.34;99808.50;3550321;27;20046;-49
2021/03/26 06:32:45;;;;;;;40.08;17.80;;;;;;;4.86;56.88;99812.34;3551623;27;20134;-49
2021/03/26 06:35:01;;;;;;;34.75;17.30;;;;;;;5.04;56.97;99814.75;3539702;27;20050;-58
2021/03/26 06:36:57;;;;;;;38.60;17.85;;;;;;;5.25;55.98;99818.13;3552459;27;20422;-58
2021/03/26 06:39:07;;;;;;;34.10;17.42;;;;;;;5.43;54.79;99812.81;3550578;27;20076;-58
2021/03/26 06:40:57;;;;;;;37.85;16.88;;;;;;;5.63;54.41;99810.94;3552871;27;20046;-58
2021/03/26 06:42:52;;;;;;;37.35;19.35;;;;;;;5.85;54.00;99802.28;3552734;27;20066;-58
2021/03/26 06:45:18;;;;;;;38.03;18.08;;;;;;;6.08;54.22;99807.31;3550464;27;20047;-58
2021/03/26 06:47:03;;;;;;;;;;;;;;;6.24;52.40;99814.75;3550400;27;20606;-58
2021/03/26 06:49:05;;;;;;;34.38;16.63;;;;;;;6.20;53.10;99817.16;3553987;27;19930;-57
2021/03/26 06:51:07;;;;;;;35.58;17.98;;;;;;;6.17;52.93;99820.53;3550513;27;20057;-58
2021/03/26 06:53:04;;;;;;;37.58;18.35;;;;;;;6.21;52.29;99818.94;3551376;27;20069;-57
2021/03/26 06:55:20;;;;;;;36.70;18.10;;;;;;;6.19;50.94;99812.81;3553698;27;20137;-58
2021/03/26 06:57:33;;;;;;;31.00;15.93;;;;;;;6.09;51.57;99819.38;3551859;27;20566;-58
2021/03/26 06:59:37;;;;;;;37.17;18.45;;;;;;;6.10;52.75;99813.38;3550188;27;20077;-58
2021/03/26 07:01:31;;;;;;;34.72;18.30;;;;;;;6.21;51.80;99812.06;3552853;27;20441;-58
2021/03/26 07:03:59;;;;;;;36.45;19.17;;;;;;;6.34;51.46;99818.50;3566963;27;20090;-58
2021/03/26 07:06:03;;;;;;;38.80;18.40;;;;;;;6.35;50.29;99821.94;3550851;27;20057;-51
2021/03/26 07:07:56;;;;;;;37.35;18.25;;;;;;;6.33;50.40;99821.91;3552506;27;20050;-50
2021/03/26 07:10:23;;;;;;;28.67;16.60;;;;;;;6.35;51.23;99824.50;3539409;28;20066;-49
2021/03/26 07:12:18;;;;;;;38.13;18.17;;;;;;;6.45;51.47;99826.56;3551604;27;20046;-51
2021/03/26 07:14:31;;;;;;;39.97;19.08;;;;;;;6.67;50.56;99823.88;3551138;27;20043;-51
2021/03/26 07:16:57;;;;;;;37.03;18.70;;;;;;;6.94;49.94;99822.97;3552874;27;20451;-58
2021/03/26 07:18:57;;;;;;;36.35;17.15;;;;;;;7.11;49.06;99815.78;3518037;27;20043;-58
2021/03/26 07:21:02;;;;;;;39.33;19.10;;;;;;;7.38;49.69;99818.28;3551018;27;20042;-57
2021/03/26 07:22:56;;;;;;;;;;;;;;;7.58;48.96;99818.88;3551180;27;20077;-57
2021/03/26 07:25:03;;;;;;;38.28;19.00;;;;;;;7.66;47.15;99813.06;3552830;27;19923;-57
2021/03/26 07:26:53;;;;;;;35.90;18.70;;;;;;;7.79;46.46;99817.69;3551478;27;20427;-51
2021/03/26 07:28:45;;;;;;;44.05;18.45;;;;;;;7.91;46.25;99817.16;3552084;27;20081;-52
2021/03/26 07:30:33;;;;;;;35.78;20.17;;;;;;;8.02;47.81;99819.22;3553578;27;20146;-50
2021/03/26 07:32:26;;;;;;;41.38;18.73;;;;;;;8.11;47.30;99821.16;3550520;27;20483;-50
2021/03/26 07:34:20;;;;;;;34.90;18.38;;;;;;;8.23;45.02;99824.88;3552630;27;20632;-57
2021/03/26 07:36:26;;;;;;;36.08;18.73;;;;;;;8.25;45.81;99828.38;3539018;28;20431;-56
2021/03/26 07:38:29;;;;;;;39.28;19.13;;;;;;;8.42;46.72;99823.66;3548895;27;20533;-57
2021/03/26 07:40:36;;;;;;;31.73;17.30;;;;;;;8.57;46.02;99827.47;3536452;27;20042;-57
2021/03/26 07:42:52;;;;;;;32.90;17.30;;;;;;;8.60;45.00;99831.84;3539217;28;20108;-56
2021/03/26 07:44:54;;;;;;;42.35;18.98;;;;;;;8.70;45.38;99830.34;3553612;27;20043;-57
2021/03/26 07:46:49;;;;;;;31.50;16.33;;;;;;;8.74;44.59;99829.56;3549348;27;20049;-57
2021/03/26 07:48:45;;;;;;;34.90;17.17;;;;;;;8.82;44.49;99835.81;3550263;27;20042;-56
2021/03/26 07:50:57;;;;;;;33.33;17.23;;;;;;;9.05;44.94;99833.75;3566718;27;20046;-52
2021/03/26 07:52:46;;;;;;;29.50;16.48;;;;;;;9.22;43.03;99828.94;3552089;27;20049;-51
2021/03/26 07:54:43;;;;;;;31.65;15.57;;;;;;;9.26;42.50;99835.03;3552139;27;20047;-50
2021/03/26 07:56:45;;;;;;;36.22;17.02;;;;;;;9.30;42.78;99845.50;3551211;27;20062;-49
2021/03/26 07:58:47;;;;;;;38.38;16.27;;;;;;;9.41;42.88;99837.09;3550545;27;20133;-50
2021/03/26 08:00:41;;;;;;;26.73;14.75;;;;;;;9.65;43.25;99835.06;3551364;27;20054;-49
2021/03/26 08:02:36;;;;;;;27.60;14.75;;;;;;;9.91;42.72;99834.66;3553430;27;20074;-50
2021/03/26 08:04:25;;;;;;;29.27;14.50;;;;;;;10.13;40.45;99840.28;3549544;27;20062;-54
2021/03/26 08:06:24;;;;;;;28.45;15.48;;;;;;;10.35;40.21;99838.91;3552486;27;20085;-55
2021/03/26 08:08:36;;;;;;;27.88;15.60;;;;;;;10.42;40.68;99839.06;3549599;27;20074;-54
2021/03/26 08:10:39;;;;;;;23.95;13.18;;;;;;;10.51;38.85;99840.91;3549183;27;20388;-55
2021/03/26 08:12:33;;;;;;;25.85;14.93;;;;;;;10.59;40.17;99843.66;3550574;27;20051;-54
2021/03/26 08:14:47;;;;;;;31.10;15.00;;;;;;;10.64;39.92;99842.88;3552128;27;20050;-55
2021/03/26 08:17:09;;;;;;;36.22;16.20;;;;;;;10.72;40.07;99842.97;3547542;27;20045;-54
2021/03/26 08:19:00;;;;;;;39.10;17.60;;;;;;;10.87;39.94;99850.16;3549154;27;20449;-55
2021/03/26 08:20:55;;;;;;;31.27;15.75;;;;;;;10.79;40.31;99841.38;3552745;27;20050;-55
2021/03/26 08:22:49;;;;;;;33.03;17.52;;;;;;;10.62;40.56;99841.97;3551804;27;20415;-54
2021/03/26 08:24:50;;;;;;;36.90;17.03;;;;;;;10.73;41.53;99841.28;3549937;27;20050;-53
2021/03/26 08:26:42;;;;;;;31.45;14.73;;;;;;;10.92;40.83;99842.41;3538586;28;20287;-55
2021/03/26 08:28:47;;;;;;;26.15;15.55;;;;;;;11.07;40.97;99843.50;3547524;27;20074;-55
2021/03/26 08:30:44;;;;;;;25.63;13.02;;;;;;;11.29;41.50;99842.94;3551055;27;20405;-53